ePrivacy and GPDR Cookie Consent by Cookie Consent
EmailTwitter


Surface observations / Europe / LIRF (16242)

Regions: Quebec | Canada | USA | Europe | France | UK | Elsewhere
Station
Display
Info & Location for LIRF (16242) | Help decoding METAR

Weather Conditions observed on 2021/12/09 at 00:20 UTC (LIRF)

Sky conditions: variable clouds.

Temperature: 13.0 Celsius.

Dewpoint: 7.0 Celsius.

Relative Humidity: 67%

Windchill Factor 10.

Windchill Factor (Gusts) 9.

Winds: Southwest at 37 km/h or 20 knots.

Gust: 56 km/h or 30 knots.

Mean Sea level Pressure: 100.10 kilopascals.

Horizontal visibility: 6.21 statute miles or 9.94 kilometers.

Coded METAR:

LIRF 090020Z 24020G30KT 9999 SCT035 13/07 Q1001 NOSIG=